createdAt,value
2019-02-15T00:01:53.850Z,85.52
2019-02-15T00:04:26.081Z,86.31
2019-02-15T00:06:57.571Z,86.18
2019-02-15T00:09:29.439Z,86.72
2019-02-15T00:12:01.093Z,86.79
2019-02-15T00:14:50.278Z,86.02
2019-02-15T00:17:39.880Z,85.93
2019-02-15T00:20:16.998Z,85.54
2019-02-15T00:22:48.306Z,86.35
2019-02-15T00:25:19.925Z,87.03
2019-02-15T00:27:51.458Z,87.86
2019-02-15T00:30:23.012Z,88.21
2019-02-15T00:32:56.191Z,88.21
2019-02-15T00:35:27.697Z,88.10
2019-02-15T00:37:59.330Z,88.05
2019-02-15T00:40:30.652Z,87.57
2019-02-15T00:43:01.926Z,87.54
2019-02-15T00:45:38.400Z,86.73
2019-02-15T00:48:13.852Z,86.31
2019-02-15T00:51:09.866Z,86.66
2019-02-15T00:53:46.633Z,86.90
2019-02-15T00:56:27.603Z,87.10
2019-02-15T00:59:13.314Z,87.38
2019-02-15T01:02:09.503Z,87.26
2019-02-15T01:04:49.335Z,87.60
2019-02-15T01:07:39.747Z,87.92
2019-02-15T01:10:20.383Z,87.47
2019-02-15T01:12:56.028Z,86.70
2019-02-15T01:15:27.456Z,87.04
2019-02-15T01:17:58.693Z,87.32
2019-02-15T01:20:29.906Z,87.45
2019-02-15T01:23:01.589Z,87.93
2019-02-15T01:25:39.995Z,87.97
2019-02-15T01:28:23.323Z,88.15
2019-02-15T01:31:22.358Z,88.47
2019-02-15T01:34:06.764Z,88.59
2019-02-15T01:37:00.116Z,88.42
2019-02-15T01:39:48.613Z,88.52
2019-02-15T01:42:37.773Z,88.58
2019-02-15T01:45:22.528Z,88.68
2019-02-15T01:47:53.748Z,89.25
2019-02-15T01:50:25.455Z,89.07
2019-02-15T01:52:57.098Z,88.53
2019-02-15T01:55:28.428Z,88.71
2019-02-15T01:57:59.718Z,88.59
2019-02-15T02:00:33.882Z,88.60
2019-02-15T02:03:05.548Z,88.91
2019-02-15T02:05:36.851Z,89.26
2019-02-15T02:08:10.208Z,89.85
2019-02-15T02:10:41.780Z,90.60
2019-02-15T02:13:13.124Z,90.39
2019-02-15T02:15:44.644Z,90.33
2019-02-15T02:18:16.258Z,90.10
2019-02-15T02:20:47.665Z,90.24
2019-02-15T02:23:19.026Z,89.91
2019-02-15T02:25:52.547Z,88.74
2019-02-15T02:28:23.901Z,88.63
2019-02-15T02:30:55.908Z,88.75
2019-02-15T02:33:27.183Z,89.00
2019-02-15T02:35:58.481Z,89.33
2019-02-15T02:38:30.205Z,89.50
2019-02-15T02:41:01.608Z,89.81
2019-02-15T02:43:33.296Z,89.72
2019-02-15T02:46:04.662Z,89.64
2019-02-15T02:48:36.024Z,89.62
2019-02-15T02:51:07.285Z,89.69
2019-02-15T02:53:38.804Z,90.37
2019-02-15T02:56:10.343Z,90.30
2019-02-15T02:58:41.540Z,90.11
2019-02-15T03:01:12.933Z,90.04
2019-02-15T03:03:44.328Z,89.32
2019-02-15T03:06:15.878Z,89.23
2019-02-15T03:08:47.074Z,89.31
2019-02-15T03:11:18.776Z,89.67
2019-02-15T03:13:49.960Z,90.21
2019-02-15T03:16:21.207Z,90.15
2019-02-15T03:18:52.421Z,90.25
2019-02-15T03:21:23.788Z,90.23
2019-02-15T03:23:55.396Z,90.33
2019-02-15T03:26:26.566Z,90.32
2019-02-15T03:28:57.808Z,90.13
2019-02-15T03:31:29.355Z,90.07
2019-02-15T03:34:00.935Z,90.20
2019-02-15T03:36:58.627Z,90.23
2019-02-15T03:39:42.722Z,90.55
2019-02-15T03:42:15.086Z,90.64
2019-02-15T03:44:47.433Z,90.60
2019-02-15T03:47:25.347Z,90.54
2019-02-15T03:49:57.502Z,90.52
2019-02-15T03:52:28.750Z,90.39
2019-02-15T03:55:00.017Z,89.94
2019-02-15T03:57:31.705Z,90.01
2019-02-15T04:00:04.810Z,90.30
2019-02-15T04:02:36.325Z,90.21
2019-02-15T04:05:07.854Z,89.53
2019-02-15T04:07:39.157Z,89.93
2019-02-15T04:10:10.872Z,90.76
2019-02-15T04:12:42.044Z,91.03
2019-02-15T04:15:13.587Z,90.58
2019-02-15T04:17:44.863Z,89.59
2019-02-15T04:20:17.443Z,89.38
2019-02-15T04:22:48.937Z,89.57
2019-02-15T04:25:20.189Z,89.41
2019-02-15T04:27:51.620Z,88.77
2019-02-15T04:30:23.137Z,89.10
2019-02-15T04:32:54.465Z,89.42
2019-02-15T04:35:26.048Z,89.81
2019-02-15T04:37:57.328Z,90.42
2019-02-15T04:40:28.633Z,90.62
2019-02-15T04:42:59.910Z,90.44
2019-02-15T04:45:32.223Z,90.34
2019-02-15T04:48:03.454Z,90.94
2019-02-15T04:50:35.274Z,91.35
2019-02-15T04:53:06.829Z,91.36
2019-02-15T04:55:38.198Z,91.37
2019-02-15T04:58:09.409Z,91.17
2019-02-15T05:00:41.081Z,90.57
2019-02-15T05:03:12.389Z,90.71
2019-02-15T05:05:43.935Z,90.59
2019-02-15T05:08:15.091Z,91.18
2019-02-15T05:10:46.456Z,91.52
2019-02-15T05:13:17.625Z,91.94
2019-02-15T05:15:48.838Z,91.25
2019-02-15T05:18:20.014Z,90.27
2019-02-15T05:20:51.645Z,90.29
2019-02-15T05:23:22.889Z,90.17
2019-02-15T05:25:54.073Z,91.16
2019-02-15T05:28:25.458Z,91.23
2019-02-15T05:30:57.629Z,90.89
2019-02-15T05:33:29.158Z,91.23
2019-02-15T05:36:00.417Z,91.24
2019-02-15T05:38:31.608Z,91.73
2019-02-15T05:41:02.791Z,91.50
2019-02-15T05:43:34.327Z,90.63
2019-02-15T05:46:06.216Z,90.50
2019-02-15T05:48:37.778Z,90.81
2019-02-15T05:51:09.029Z,90.97
2019-02-15T05:53:40.238Z,91.15
2019-02-15T05:56:11.488Z,91.17
2019-02-15T05:58:43.062Z,91.35
2019-02-15T06:01:14.707Z,91.47
2019-02-15T06:03:45.920Z,91.37
2019-02-15T06:06:17.132Z,91.70
2019-02-15T06:08:48.298Z,91.92
2019-02-15T06:11:19.804Z,92.08
2019-02-15T06:13:52.988Z,91.51
2019-02-15T06:16:24.370Z,91.22
2019-02-15T06:18:55.647Z,91.33
2019-02-15T06:21:27.216Z,91.69
2019-02-15T06:23:58.532Z,92.39
2019-02-15T06:26:29.707Z,91.92
2019-02-15T06:29:00.877Z,91.56
2019-02-15T06:31:32.444Z,92.08
2019-02-15T06:34:03.774Z,92.65
2019-02-15T06:36:37.434Z,93.22
2019-02-15T06:39:10.069Z,93.14
2019-02-15T06:41:41.325Z,92.97
2019-02-15T06:44:14.021Z,92.37
2019-02-15T06:46:46.266Z,92.33
2019-02-15T06:49:17.494Z,92.70
2019-02-15T06:51:48.651Z,92.72
2019-02-15T06:54:20.915Z,92.72
2019-02-15T06:56:52.090Z,92.48
2019-02-15T06:59:42.185Z,92.12
2019-02-15T07:02:21.820Z,92.05
2019-02-15T07:05:11.904Z,91.73
2019-02-15T07:07:43.084Z,90.91
2019-02-15T07:10:16.264Z,90.46
2019-02-15T07:12:47.526Z,88.83
2019-02-15T07:15:19.129Z,88.30
2019-02-15T07:17:50.674Z,85.95
2019-02-15T07:20:22.298Z,84.99
2019-02-15T07:22:53.884Z,84.81
2019-02-15T07:25:25.452Z,83.13
2019-02-15T07:27:56.962Z,81.12
2019-02-15T07:30:28.150Z,79.02
2019-02-15T07:32:59.288Z,77.86
2019-02-15T07:35:30.743Z,77.44
2019-02-15T07:38:02.142Z,75.83
2019-02-15T07:40:33.300Z,75.29
2019-02-15T07:43:04.963Z,75.34
2019-02-15T07:45:42.595Z,74.92
2019-02-15T07:48:09.058Z,75.00
2019-02-15T07:50:40.215Z,74.87
2019-02-15T07:53:11.544Z,74.83
2019-02-15T07:55:42.767Z,74.77
2019-02-15T07:58:13.936Z,74.05
2019-02-15T08:00:45.415Z,72.80
2019-02-15T08:03:16.583Z,71.45
2019-02-15T08:05:48.703Z,70.31
2019-02-15T08:08:20.238Z,69.12
2019-02-15T08:10:51.723Z,68.94
2019-02-15T08:13:23.288Z,67.34
2019-02-15T08:15:54.661Z,66.45
2019-02-15T08:18:25.835Z,66.93
2019-02-15T08:20:57.003Z,67.16
2019-02-15T08:23:28.178Z,66.52
2019-02-15T08:25:59.705Z,66.88
2019-02-15T08:28:30.948Z,67.96
2019-02-15T08:31:02.433Z,67.82
2019-02-15T08:33:33.592Z,65.88
2019-02-15T08:36:04.823Z,65.53
2019-02-15T08:38:35.995Z,64.73
2019-02-15T08:41:07.138Z,63.55
2019-02-15T08:43:39.410Z,61.64
2019-02-15T08:46:10.637Z,61.88
2019-02-15T08:48:46.263Z,61.08
2019-02-15T08:51:15.236Z,59.26
2019-02-15T08:53:46.533Z,58.09
2019-02-15T08:56:17.982Z,54.90
2019-02-15T08:58:49.545Z,54.80
2019-02-15T09:01:20.879Z,52.76
2019-02-15T09:03:52.088Z,52.59
2019-02-15T09:06:23.487Z,51.64
2019-02-15T09:08:55.288Z,52.50
2019-02-15T09:11:26.547Z,51.93
2019-02-15T09:13:57.716Z,51.54
2019-02-15T09:16:29.292Z,51.24
2019-02-15T09:19:00.909Z,49.56
2019-02-15T09:21:32.145Z,50.46
2019-02-15T09:24:04.059Z,49.13
2019-02-15T09:26:35.646Z,48.24
2019-02-15T09:29:09.924Z,47.90
2019-02-15T09:31:41.229Z,51.19
2019-02-15T09:34:12.567Z,54.05
2019-02-15T09:36:44.139Z,55.15
2019-02-15T09:39:15.793Z,52.50
2019-02-15T09:41:47.044Z,52.25
2019-02-15T09:44:18.528Z,51.30
2019-02-15T09:46:49.791Z,50.60
2019-02-15T09:49:22.220Z,51.01
2019-02-15T09:51:55.557Z,49.97
2019-02-15T09:54:26.840Z,51.76
2019-02-15T09:56:58.328Z,49.39
2019-02-15T09:59:29.504Z,49.87
2019-02-15T10:02:00.848Z,51.16
2019-02-15T10:04:32.375Z,51.55
2019-02-15T10:07:03.681Z,51.28
2019-02-15T10:09:34.939Z,52.19
2019-02-15T10:12:06.282Z,48.78
2019-02-15T10:14:37.883Z,49.32
2019-02-15T10:17:09.161Z,48.69
2019-02-15T10:19:40.745Z,50.04
2019-02-15T10:22:11.909Z,49.43
2019-02-15T10:24:43.746Z,50.32
2019-02-15T10:27:15.111Z,49.52
2019-02-15T10:29:46.653Z,48.60
2019-02-15T10:32:18.167Z,47.63
2019-02-15T10:34:50.332Z,50.00
2019-02-15T10:37:21.885Z,48.88
2019-02-15T10:39:53.119Z,49.83
2019-02-15T10:42:26.004Z,47.96
2019-02-15T10:44:57.206Z,48.10
2019-02-15T10:47:28.645Z,47.55
2019-02-15T10:50:00.327Z,46.07
2019-02-15T10:52:31.489Z,47.51
2019-02-15T10:55:02.816Z,45.63
2019-02-15T10:57:34.092Z,45.28
2019-02-15T11:00:06.870Z,47.77
2019-02-15T11:02:39.159Z,46.95
2019-02-15T11:05:10.697Z,47.95
2019-02-15T11:07:41.931Z,49.01
2019-02-15T11:10:13.381Z,51.15
2019-02-15T11:12:44.805Z,53.21
2019-02-15T11:15:16.353Z,54.27
2019-02-15T11:17:48.129Z,48.74
2019-02-15T11:20:19.759Z,50.13
2019-02-15T11:22:51.166Z,47.36
2019-02-15T11:25:22.479Z,45.57
2019-02-15T11:27:53.908Z,44.54
2019-02-15T11:30:25.623Z,43.14
2019-02-15T11:32:57.012Z,42.07
2019-02-15T11:35:28.698Z,43.74
2019-02-15T11:37:59.903Z,41.73
2019-02-15T11:40:31.428Z,40.61
2019-02-15T11:43:02.763Z,42.81
2019-02-15T11:45:33.971Z,40.82
2019-02-15T11:48:05.283Z,40.73
2019-02-15T11:50:36.688Z,41.72
2019-02-15T11:53:08.387Z,38.37
2019-02-15T11:55:39.707Z,38.81
2019-02-15T11:58:11.388Z,38.42
2019-02-15T12:00:43.390Z,37.95
2019-02-15T12:03:14.660Z,38.37
2019-02-15T12:05:46.008Z,38.88
2019-02-15T12:08:17.988Z,38.53
2019-02-15T12:10:49.810Z,38.68
2019-02-15T12:13:21.442Z,41.22
2019-02-15T12:15:52.846Z,40.69
2019-02-15T12:18:24.177Z,38.60
2019-02-15T12:20:55.400Z,39.25
2019-02-15T12:23:28.485Z,37.98
2019-02-15T12:26:00.053Z,37.21
2019-02-15T12:28:31.522Z,37.64
2019-02-15T12:31:02.896Z,36.74
2019-02-15T12:33:34.286Z,36.63
2019-02-15T12:36:05.728Z,37.33
2019-02-15T12:38:37.127Z,36.24
2019-02-15T12:41:08.390Z,36.09
2019-02-15T12:43:40.123Z,35.28
2019-02-15T12:46:11.518Z,36.17
2019-02-15T12:48:42.842Z,37.10
2019-02-15T12:51:14.411Z,37.44
2019-02-15T12:53:45.748Z,37.74
2019-02-15T12:56:17.089Z,37.57
2019-02-15T12:58:48.522Z,36.47
2019-02-15T13:01:20.231Z,37.66
2019-02-15T13:03:51.692Z,36.99
2019-02-15T13:06:28.778Z,35.79
2019-02-15T13:08:55.870Z,36.64
2019-02-15T13:11:27.165Z,36.44
2019-02-15T13:13:58.568Z,37.33
2019-02-15T13:16:30.196Z,38.71
2019-02-15T13:19:01.588Z,37.81
2019-02-15T13:21:32.759Z,38.57
2019-02-15T13:24:04.237Z,37.96
2019-02-15T13:26:35.802Z,38.11
2019-02-15T13:29:07.062Z,36.90
2019-02-15T13:31:38.359Z,39.15
2019-02-15T13:34:09.592Z,38.02
2019-02-15T13:36:41.037Z,36.91
2019-02-15T13:39:12.511Z,36.93
2019-02-15T13:41:43.866Z,36.34
2019-02-15T13:44:15.018Z,36.18
2019-02-15T13:46:46.261Z,37.48
2019-02-15T13:49:17.486Z,36.84
2019-02-15T13:51:48.765Z,35.00
2019-02-15T13:54:20.018Z,37.33
2019-02-15T13:56:51.380Z,37.46
2019-02-15T13:59:22.780Z,37.43
2019-02-15T14:01:53.998Z,37.98
2019-02-15T14:04:26.070Z,38.76
2019-02-15T14:06:58.503Z,40.12
2019-02-15T14:09:30.114Z,38.11
2019-02-15T14:12:03.049Z,39.69
2019-02-15T14:14:34.463Z,39.52
2019-02-15T14:17:06.216Z,41.46
2019-02-15T14:19:37.640Z,41.50
2019-02-15T14:22:09.087Z,41.00
2019-02-15T14:24:40.314Z,38.57
2019-02-15T14:27:12.341Z,40.80
2019-02-15T14:29:43.827Z,40.66
2019-02-15T14:32:15.145Z,40.31
2019-02-15T14:34:46.594Z,41.99
2019-02-15T14:37:17.910Z,40.61
2019-02-15T14:39:49.357Z,40.57
2019-02-15T14:42:20.720Z,40.60
2019-02-15T14:44:52.451Z,40.23
2019-02-15T14:47:23.970Z,39.06
2019-02-15T14:49:55.327Z,39.18
2019-02-15T14:52:26.942Z,40.49
2019-02-15T14:54:58.749Z,39.83
2019-02-15T14:57:30.429Z,39.81
2019-02-15T15:00:01.718Z,38.27
2019-02-15T15:02:33.546Z,38.09
2019-02-15T15:05:05.174Z,37.77
2019-02-15T15:07:36.488Z,39.56
2019-02-15T15:10:08.987Z,39.71
2019-02-15T15:12:40.498Z,40.26
2019-02-15T15:15:13.030Z,41.45
2019-02-15T15:17:44.517Z,41.83
2019-02-15T15:20:15.979Z,45.03
2019-02-15T15:22:47.764Z,43.61
2019-02-15T15:25:19.379Z,44.25
2019-02-15T15:27:51.011Z,44.82
2019-02-15T15:30:22.284Z,45.25
2019-02-15T15:32:53.629Z,45.53
2019-02-15T15:35:25.113Z,45.13
2019-02-15T15:37:56.508Z,45.41
2019-02-15T15:40:28.033Z,46.10
2019-02-15T15:42:59.706Z,47.69
2019-02-15T15:45:31.195Z,47.04
2019-02-15T15:48:02.615Z,48.15
2019-02-15T15:50:34.087Z,50.02
2019-02-15T15:53:07.819Z,50.31
2019-02-15T15:55:38.949Z,50.05
2019-02-15T15:58:10.626Z,50.31
2019-02-15T16:00:42.245Z,50.74
2019-02-15T16:03:13.792Z,51.41
2019-02-15T16:05:45.844Z,50.84
2019-02-15T16:08:17.223Z,52.70
2019-02-15T16:10:48.669Z,52.25
2019-02-15T16:13:20.174Z,53.31
2019-02-15T16:15:52.163Z,53.90
2019-02-15T16:18:31.891Z,54.15
2019-02-15T16:20:56.437Z,54.18
2019-02-15T16:23:27.831Z,55.12
2019-02-15T16:26:00.311Z,56.48
2019-02-15T16:28:31.745Z,57.54
2019-02-15T16:31:03.445Z,57.69
2019-02-15T16:33:34.819Z,58.53
2019-02-15T16:36:06.195Z,58.74
2019-02-15T16:38:37.593Z,59.97
2019-02-15T16:41:08.927Z,61.08
2019-02-15T16:43:40.541Z,61.16
2019-02-15T16:46:11.947Z,62.91
2019-02-15T16:48:43.311Z,64.05
2019-02-15T16:51:14.698Z,65.69
2019-02-15T16:53:45.908Z,66.01
2019-02-15T16:56:17.601Z,66.59
2019-02-15T16:58:49.132Z,66.24
2019-02-15T17:01:20.569Z,65.72
2019-02-15T17:03:52.015Z,66.35
2019-02-15T17:06:23.718Z,67.21
2019-02-15T17:08:55.072Z,68.44
2019-02-15T17:11:26.365Z,69.06
2019-02-15T17:13:57.573Z,69.64
2019-02-15T17:16:28.837Z,70.40
2019-02-15T17:19:00.490Z,71.07
2019-02-15T17:21:31.611Z,70.67
2019-02-15T17:24:03.122Z,70.76
2019-02-15T17:26:34.241Z,70.28
2019-02-15T17:29:05.514Z,69.73
2019-02-15T17:31:36.817Z,69.05
2019-02-15T17:34:07.976Z,68.73
2019-02-15T17:36:39.176Z,68.87
2019-02-15T17:39:10.601Z,68.80
2019-02-15T17:41:41.827Z,69.42
2019-02-15T17:44:12.986Z,70.03
2019-02-15T17:46:44.233Z,70.72
2019-02-15T17:49:15.873Z,70.93
2019-02-15T17:51:47.048Z,70.97
2019-02-15T17:54:18.385Z,72.03
2019-02-15T17:56:49.650Z,72.37
2019-02-15T17:59:20.864Z,72.34
2019-02-15T18:01:52.017Z,72.70
2019-02-15T18:04:23.168Z,72.03
2019-02-15T18:06:54.400Z,71.66
2019-02-15T18:09:25.529Z,71.54
2019-02-15T18:11:56.638Z,71.21
2019-02-15T18:14:28.099Z,71.54
2019-02-15T18:16:59.574Z,72.07
2019-02-15T18:19:30.677Z,72.81
2019-02-15T18:22:03.034Z,73.86
2019-02-15T18:24:34.677Z,73.91
2019-02-15T18:27:05.871Z,74.61
2019-02-15T18:29:37.604Z,74.76
2019-02-15T18:32:09.159Z,75.14
2019-02-15T18:34:40.264Z,74.91
2019-02-15T18:37:11.429Z,74.51
2019-02-15T18:39:42.658Z,74.76
2019-02-15T18:42:13.884Z,74.79
2019-02-15T18:44:45.015Z,73.84
2019-02-15T18:47:16.224Z,73.25
2019-02-15T18:49:47.405Z,73.69
2019-02-15T18:52:18.784Z,74.20
2019-02-15T18:54:49.927Z,74.33
2019-02-15T18:57:21.307Z,74.50
2019-02-15T18:59:52.408Z,75.10
2019-02-15T19:02:23.576Z,75.55
2019-02-15T19:04:54.759Z,77.37
2019-02-15T19:07:26.003Z,77.14
2019-02-15T19:09:57.405Z,77.11
2019-02-15T19:12:29.599Z,77.49
2019-02-15T19:15:00.767Z,77.08
2019-02-15T19:17:32.175Z,76.83
2019-02-15T19:20:03.468Z,76.96
2019-02-15T19:22:35.767Z,76.70
2019-02-15T19:25:08.992Z,76.80
2019-02-15T19:27:40.195Z,76.97
2019-02-15T19:30:15.389Z,77.08
2019-02-15T19:32:46.662Z,78.26
2019-02-15T19:35:17.855Z,78.19
2019-02-15T19:37:48.986Z,78.87
2019-02-15T19:40:20.638Z,78.64
2019-02-15T19:42:53.161Z,78.37
2019-02-15T19:45:24.929Z,77.23
2019-02-15T19:47:58.320Z,77.62
2019-02-15T19:50:30.652Z,77.82
2019-02-15T19:53:02.201Z,78.74
2019-02-15T19:55:33.380Z,78.88
2019-02-15T19:58:04.551Z,77.98
2019-02-15T20:00:36.125Z,78.42
2019-02-15T20:03:07.724Z,78.63
2019-02-15T20:05:38.867Z,78.61
2019-02-15T20:08:11.099Z,78.09
2019-02-15T20:10:43.446Z,78.21
2019-02-15T20:13:14.603Z,78.06
2019-02-15T20:15:45.817Z,78.67
2019-02-15T20:18:17.079Z,79.00
2019-02-15T20:20:48.290Z,79.45
2019-02-15T20:23:19.609Z,79.77
2019-02-15T20:25:50.897Z,80.18
2019-02-15T20:28:22.420Z,79.38
2019-02-15T20:30:53.600Z,79.19
2019-02-15T20:33:25.124Z,78.74
2019-02-15T20:35:56.366Z,78.59
2019-02-15T20:38:27.617Z,79.30
2019-02-15T20:40:58.738Z,79.42
2019-02-15T20:43:29.955Z,79.75
2019-02-15T20:46:01.073Z,80.05
2019-02-15T20:48:32.265Z,80.29
2019-02-15T20:51:03.737Z,81.04
2019-02-15T20:53:35.605Z,81.23
2019-02-15T20:56:07.020Z,81.99
2019-02-15T20:58:38.204Z,82.07
2019-02-15T21:01:09.881Z,81.69
2019-02-15T21:03:41.100Z,81.10
2019-02-15T21:06:12.256Z,80.96
2019-02-15T21:08:43.499Z,81.26
2019-02-15T21:11:14.695Z,81.12
2019-02-15T21:13:45.842Z,81.28
2019-02-15T21:16:17.094Z,81.63
2019-02-15T21:18:48.264Z,81.22
2019-02-15T21:21:19.540Z,80.47
2019-02-15T21:23:50.674Z,80.44
2019-02-15T21:26:21.869Z,80.66
2019-02-15T21:28:53.090Z,81.26
2019-02-15T21:31:24.202Z,81.38
2019-02-15T21:33:55.376Z,81.51
2019-02-15T21:36:26.627Z,82.03
2019-02-15T21:38:58.125Z,82.46
2019-02-15T21:41:29.313Z,81.87
2019-02-15T21:44:01.589Z,82.50
2019-02-15T21:46:32.947Z,82.05
2019-02-15T21:49:04.279Z,82.16
2019-02-15T21:51:35.754Z,82.33
2019-02-15T21:54:06.976Z,83.10
2019-02-15T21:56:38.109Z,83.07
2019-02-15T21:59:09.322Z,83.28
2019-02-15T22:01:41.136Z,83.79
2019-02-15T22:04:12.620Z,83.40
2019-02-15T22:06:43.761Z,83.28
2019-02-15T22:09:15.288Z,83.12
2019-02-15T22:11:46.560Z,83.27
2019-02-15T22:14:17.703Z,82.96
2019-02-15T22:16:49.083Z,82.97
2019-02-15T22:19:20.197Z,83.11
2019-02-15T22:21:51.330Z,83.02
2019-02-15T22:24:22.772Z,83.12
2019-02-15T22:26:54.250Z,83.48
2019-02-15T22:29:25.384Z,83.25
2019-02-15T22:31:56.581Z,83.07
2019-02-15T22:34:27.747Z,82.84
2019-02-15T22:36:59.041Z,82.88
2019-02-15T22:39:30.160Z,82.93
2019-02-15T22:42:01.301Z,82.60
2019-02-15T22:44:32.566Z,81.99
2019-02-15T22:47:03.936Z,81.94
2019-02-15T22:49:43.119Z,81.67
2019-02-15T22:52:07.966Z,81.91
2019-02-15T22:54:39.163Z,81.64
2019-02-15T22:57:10.289Z,82.06
2019-02-15T22:59:41.406Z,81.36
2019-02-15T23:02:13.381Z,82.19
2019-02-15T23:04:44.709Z,83.61
2019-02-15T23:07:16.186Z,83.50
2019-02-15T23:09:47.409Z,84.01
2019-02-15T23:12:18.569Z,84.45
2019-02-15T23:14:49.705Z,83.77
2019-02-15T23:17:21.093Z,82.95
2019-02-15T23:19:52.270Z,83.18
2019-02-15T23:22:23.430Z,83.18
2019-02-15T23:24:54.552Z,82.73
2019-02-15T23:27:25.684Z,81.76
2019-02-15T23:29:57.442Z,81.36
2019-02-15T23:32:29.068Z,81.01
2019-02-15T23:35:00.327Z,80.81
2019-02-15T23:37:31.571Z,80.82
2019-02-15T23:40:03.151Z,81.03
2019-02-15T23:42:34.647Z,80.89
2019-02-15T23:45:06.203Z,80.39
2019-02-15T23:47:37.370Z,80.79
2019-02-15T23:50:09.267Z,81.57
2019-02-15T23:52:40.957Z,82.61
2019-02-15T23:55:12.501Z,82.60
2019-02-15T23:57:43.621Z,82.90
